Time;durP1;ratioP1;P1;durP2;ratioP2;P2;SDS_P1;SDS_P2;PMS_P1;PMS_P2;Temp;Humidity;BMP_temperature;BMP_pressure;BME280_temperature;BME280_humidity;BME280_pressure;Samples;Min_cycle;Max_cycle;Signal;HPM_P1;HPM_P2
2022/08/07 00:01:16;;;;;;;22.10;14.18;;;;;;;23.71;64.25;99613.97;5106415;28;20106;-29
2022/08/07 00:03:41;;;;;;;20.03;14.73;;;;;;;23.97;63.79;99614.84;5088076;28;20208;-32
2022/08/07 00:06:07;;;;;;;19.30;13.43;;;;;;;23.80;63.96;99614.81;5106717;28;20035;-30
2022/08/07 00:08:32;;;;;;;21.92;15.02;;;;;;;23.25;65.83;99611.44;5106268;28;20042;-29
2022/08/07 00:10:58;;;;;;;28.80;18.98;;;;;;;23.08;66.88;99638.56;5088010;28;20495;-34
2022/08/07 00:13:24;;;;;;;27.75;18.05;;;;;;;22.97;67.56;99631.78;5106248;28;20587;-29
2022/08/07 00:15:51;;;;;;;36.00;24.02;;;;;;;22.61;68.16;99619.09;5087722;28;20027;-28
2022/08/07 00:18:20;;;;;;;45.55;28.25;;;;;;;22.83;67.69;99631.84;5088196;28;20043;-33
2022/08/07 00:20:48;;;;;;;45.67;26.70;;;;;;;22.96;67.27;99622.00;5087919;28;20558;-32
2022/08/07 00:23:13;;;;;;;46.95;26.02;;;;;;;22.62;67.95;99637.00;5088074;28;20063;-31
2022/08/07 00:25:39;;;;;;;38.25;23.27;;;;;;;22.96;66.92;99635.59;5105368;28;20058;-29
2022/08/07 00:28:04;;;;;;;24.63;17.42;;;;;;;23.02;67.30;99628.94;5106219;28;20499;-28
2022/08/07 00:30:30;;;;;;;42.50;28.40;;;;;;;22.99;68.13;99634.97;5105937;28;20054;-30
2022/08/07 00:32:56;;;;;;;98.00;57.95;;;;;;;22.82;68.99;99619.34;5106120;28;20039;-28
2022/08/07 00:35:22;;;;;;;73.65;42.80;;;;;;;22.71;70.16;99635.13;5087769;28;20027;-30
2022/08/07 00:37:48;;;;;;;38.65;25.48;;;;;;;22.92;69.45;99626.47;5087527;28;20019;-31
2022/08/07 00:40:14;;;;;;;37.17;25.08;;;;;;;22.60;69.91;99610.13;5087698;28;20042;-33
2022/08/07 00:42:40;;;;;;;43.58;26.98;;;;;;;22.16;71.44;99616.31;5087187;28;20028;-29
2022/08/07 00:45:07;;;;;;;27.67;19.10;;;;;;;22.38;70.17;99610.94;5086789;28;20034;-29
2022/08/07 00:47:32;;;;;;;17.17;11.63;;;;;;;22.49;69.11;99621.56;5087392;28;20031;-29
2022/08/07 00:49:58;;;;;;;15.30;10.18;;;;;;;22.38;69.57;99619.09;5105819;28;20065;-28
2022/08/07 00:52:23;;;;;;;14.98;10.18;;;;;;;22.14;70.62;99619.34;5106066;28;20023;-30
2022/08/07 00:54:49;;;;;;;14.63;10.00;;;;;;;22.24;70.70;99616.41;5105995;28;20034;-31
2022/08/07 00:57:16;;;;;;;18.88;13.02;;;;;;;21.96;71.36;99607.53;5105913;28;20026;-31
2022/08/07 00:59:42;;;;;;;20.80;16.52;;;;;;;22.15;70.39;99606.56;5086524;28;20035;-30
2022/08/07 01:02:08;;;;;;;24.38;17.20;;;;;;;22.31;69.42;99607.84;5105778;28;20030;-29
2022/08/07 01:04:33;;;;;;;18.42;13.73;;;;;;;22.22;70.53;99613.19;5105437;28;20404;-29
2022/08/07 01:07:00;;;;;;;16.75;10.93;;;;;;;22.21;69.02;99610.75;5105824;28;20031;-33
2022/08/07 01:09:26;;;;;;;16.35;10.38;;;;;;;22.39;67.69;99607.13;5086705;28;20032;-31
2022/08/07 01:11:51;;;;;;;17.80;10.30;;;;;;;22.31;68.75;99618.69;5105246;28;20023;-30
2022/08/07 01:14:22;;;;;;;16.55;10.95;;;;;;;22.19;68.99;99602.13;5105318;28;20984;-34
2022/08/07 01:16:47;;;;;;;15.40;10.40;;;;;;;22.39;67.01;99611.72;5086929;28;20027;-30
2022/08/07 01:19:15;;;;;;;44.70;24.83;;;;;;;22.24;67.57;99607.47;5105705;28;20031;-30
2022/08/07 01:21:40;;;;;;;29.50;17.25;;;;;;;22.07;68.46;99614.34;5086715;28;20380;-31
2022/08/07 01:24:07;;;;;;;16.17;12.27;;;;;;;21.90;68.86;99610.66;5105543;28;20036;-30
2022/08/07 01:26:33;;;;;;;16.95;11.30;;;;;;;21.61;69.92;99615.34;5087002;28;20066;-29
2022/08/07 01:28:59;;;;;;;13.48;10.02;;;;;;;21.66;70.12;99622.59;5087113;28;20114;-32
2022/08/07 01:31:32;;;;;;;14.48;11.05;;;;;;;21.59;70.34;99606.69;5086853;28;20028;-29
2022/08/07 01:33:58;;;;;;;13.68;10.40;;;;;;;21.69;70.09;99602.97;5105409;28;20045;-34
2022/08/07 01:36:25;;;;;;;14.80;10.63;;;;;;;21.89;70.11;99626.16;5088299;28;20110;-28
2022/08/07 01:38:51;;;;;;;13.13;9.63;;;;;;;21.86;69.92;99611.28;5091044;28;20680;-28
2022/08/07 01:41:19;;;;;;;14.85;10.95;;;;;;;21.79;70.58;99612.81;5090798;28;20093;-32
2022/08/07 01:43:45;;;;;;;15.48;11.57;;;;;;;21.83;70.86;99611.09;5109104;28;20034;-28
2022/08/07 01:46:11;;;;;;;18.77;12.50;;;;;;;21.65;71.62;99591.91;5090543;28;20457;-32
2022/08/07 01:48:37;;;;;;;13.88;12.05;;;;;;;21.75;72.16;99609.88;5090913;28;20061;-29
2022/08/07 01:51:10;;;;;;;15.80;11.60;;;;;;;21.73;72.29;99611.31;5090702;28;20039;-29
2022/08/07 01:53:41;;;;;;;16.17;12.88;;;;;;;21.89;72.32;99609.06;5090529;28;20024;-33
2022/08/07 01:56:13;;;;;;;21.25;14.57;;;;;;;21.91;72.31;99607.66;5091007;28;20525;-28
2022/08/07 01:58:44;;;;;;;22.90;15.27;;;;;;;21.89;72.83;99603.66;5109195;28;20410;-29
2022/08/07 02:01:29;;;;;;;39.65;23.55;;;;;;;22.04;72.31;99606.78;5109157;28;20042;-31
2022/08/07 02:03:59;;;;;;;36.38;24.52;;;;;;;22.04;71.65;99590.50;5108976;28;20024;-29
2022/08/07 02:06:28;;;;;;;28.75;18.73;;;;;;;22.07;71.41;99600.75;5108664;28;20036;-29
2022/08/07 02:08:55;;;;;;;22.58;14.93;;;;;;;21.76;72.08;99578.13;5108978;28;20114;-28
2022/08/07 02:11:21;;;;;;;;;;;;;;;21.99;72.17;99604.22;5109245;28;20032;-31
2022/08/07 02:13:48;;;;;;;16.70;11.93;;;;;;;21.95;72.13;99586.13;5108401;28;19959;-30
2022/08/07 02:16:14;;;;;;;15.93;11.05;;;;;;;22.02;72.12;99606.28;5090299;28;20092;-31
2022/08/07 02:18:43;;;;;;;16.48;11.30;;;;;;;22.07;71.50;99594.53;5108503;28;20039;-33
2022/08/07 02:21:09;;;;;;;15.40;11.50;;;;;;;21.98;71.20;99589.00;5090400;28;20080;-28
2022/08/07 02:23:38;;;;;;;14.65;12.15;;;;;;;21.91;71.54;99585.94;5108481;28;20055;-32
2022/08/07 02:26:07;;;;;;;15.65;12.68;;;;;;;21.64;72.24;99586.81;5108605;28;20028;-28
2022/08/07 02:28:36;;;;;;;19.05;13.35;;;;;;;21.66;72.72;99604.38;5089925;28;20426;-28
2022/08/07 02:31:05;;;;;;;21.63;16.13;;;;;;;21.48;73.50;99586.31;5089936;28;20027;-28
2022/08/07 02:33:32;;;;;;;28.30;19.75;;;;;;;21.41;73.65;99602.97;5089772;28;20031;-30
2022/08/07 02:35:59;;;;;;;38.83;26.65;;;;;;;21.41;73.68;99600.28;5089833;28;20019;-29
2022/08/07 02:38:32;;;;;;;41.33;24.90;;;;;;;21.33;74.10;99608.28;5089644;28;20425;-29
2022/08/07 02:40:59;;;;;;;35.55;23.17;;;;;;;21.36;74.14;99599.56;5089525;28;20059;-29
2022/08/07 02:43:26;;;;;;;31.45;21.08;;;;;;;21.07;74.43;99582.47;5089318;28;20045;-29
2022/08/07 02:45:55;;;;;;;30.88;18.17;;;;;;;21.01;74.63;99580.16;5088842;28;20075;-28
2022/08/07 02:48:21;;;;;;;24.60;16.25;;;;;;;21.06;74.83;99593.63;5088771;28;20027;-31
2022/08/07 02:50:51;;;;;;;20.17;14.57;;;;;;;21.09;74.82;99603.88;5108353;28;20030;-31
2022/08/07 02:53:25;;;;;;;18.55;13.70;;;;;;;21.15;74.65;99586.41;5108173;28;20454;-31
2022/08/07 02:55:52;;;;;;;17.23;13.27;;;;;;;21.23;75.01;99604.69;5089355;28;20491;-28
2022/08/07 02:58:20;;;;;;;18.85;12.77;;;;;;;21.39;73.84;99601.66;5107754;28;20081;-28
2022/08/07 03:00:49;;;;;;;16.77;13.05;;;;;;;21.38;74.27;99606.28;5107886;28;20035;-32
2022/08/07 03:03:16;;;;;;;29.13;14.00;;;;;;;21.32;74.75;99595.84;5089409;28;20028;-29
2022/08/07 03:05:43;;;;;;;17.60;13.77;;;;;;;21.24;76.24;99598.13;5089018;28;20604;-34
2022/08/07 03:08:09;;;;;;;22.42;15.38;;;;;;;21.25;75.62;99594.34;5107788;28;20172;-30
2022/08/07 03:10:36;;;;;;;33.42;23.77;;;;;;;21.43;75.47;99614.38;5089069;28;20039;-28
2022/08/07 03:13:03;;;;;;;31.88;20.40;;;;;;;21.33;75.90;99621.84;5088891;28;20914;-31
2022/08/07 03:15:28;;;;;;;36.20;23.33;;;;;;;21.44;75.10;99621.38;5089303;28;20043;-29
2022/08/07 03:17:54;;;;;;;35.13;26.90;;;;;;;21.23;76.02;99595.75;5107826;28;20567;-29
2022/08/07 03:20:21;;;;;;;36.55;26.08;;;;;;;21.19;76.66;99616.44;5089336;28;20495;-28
2022/08/07 03:22:49;;;;;;;48.97;34.20;;;;;;;21.27;76.54;99627.38;5088698;28;20118;-31
2022/08/07 03:25:17;;;;;;;53.65;32.53;;;;;;;21.14;76.59;99605.69;5088894;28;20800;-29
2022/08/07 03:27:44;;;;;;;37.20;26.75;;;;;;;21.37;76.96;99620.13;5106880;28;20119;-34
2022/08/07 03:30:10;;;;;;;;;;;;;;;21.55;76.39;99632.03;5107791;28;20558;-32
2022/08/07 03:32:40;;;;;;;20.50;17.30;;;;;;;21.56;76.27;99623.59;5107317;28;19907;-30
2022/08/07 03:35:11;;;;;;;22.67;15.85;;;;;;;21.46;76.44;99607.53;5088698;28;20118;-29
2022/08/07 03:37:38;;;;;;;18.52;14.93;;;;;;;21.56;76.15;99612.75;5088291;28;20028;-31
2022/08/07 03:40:06;;;;;;;19.15;14.88;;;;;;;21.64;75.95;99631.03;5088185;28;20122;-28
2022/08/07 03:42:33;;;;;;;20.48;15.43;;;;;;;21.28;77.12;99609.19;5107150;28;20032;-29
2022/08/07 03:44:59;;;;;;;19.80;15.80;;;;;;;21.55;76.62;99634.75;5106595;28;20027;-28
2022/08/07 03:47:26;;;;;;;20.80;16.13;;;;;;;21.54;76.93;99636.66;5088401;28;20403;-29
2022/08/07 03:49:53;;;;;;;19.35;16.08;;;;;;;21.56;76.28;99629.03;5107017;28;20085;-28
2022/08/07 03:52:24;;;;;;;21.00;16.92;;;;;;;21.57;77.00;99646.88;5088883;28;20040;-28
2022/08/07 03:54:50;;;;;;;20.75;17.25;;;;;;;21.42;77.33;99622.75;5107240;28;20020;-28
2022/08/07 03:57:16;;;;;;;24.70;17.77;;;;;;;21.65;77.10;99643.47;5106989;28;20656;-31
2022/08/07 03:59:43;;;;;;;21.80;17.23;;;;;;;21.67;76.32;99619.53;5088054;28;20035;-29
2022/08/07 04:02:08;;;;;;;20.73;16.17;;;;;;;21.78;75.81;99641.03;5088216;28;20172;-31
2022/08/07 04:04:34;;;;;;;20.23;16.40;;;;;;;21.54;76.55;99633.94;5106543;28;20043;-29
2022/08/07 04:07:00;;;;;;;20.92;17.33;;;;;;;21.61;77.35;99663.38;5106319;28;20030;-28
2022/08/07 04:09:27;;;;;;;21.38;16.58;;;;;;;21.54;77.99;99652.13;5106374;28;20102;-29
2022/08/07 04:11:53;;;;;;;24.07;17.13;;;;;;;21.65;77.11;99659.75;5087890;28;20404;-32
2022/08/07 04:14:19;;;;;;;20.38;16.08;;;;;;;21.64;77.41;99655.44;5088198;28;20276;-33
2022/08/07 04:16:47;;;;;;;23.88;17.27;;;;;;;21.62;77.88;99663.09;5106394;28;20066;-29
2022/08/07 04:19:13;;;;;;;19.90;16.65;;;;;;;21.58;77.96;99629.53;5087912;28;20047;-28
2022/08/07 04:21:39;;;;;;;20.75;15.80;;;;;;;21.76;77.33;99648.69;5087652;28;20027;-33
2022/08/07 04:24:09;;;;;;;18.27;15.02;;;;;;;21.67;77.63;99638.53;5106504;28;20402;-29
2022/08/07 04:26:36;;;;;;;19.33;15.77;;;;;;;21.80;77.58;99652.41;5087757;28;20027;-31
2022/08/07 04:29:03;;;;;;;18.33;15.23;;;;;;;21.91;76.39;99651.09;5087875;28;20023;-37
2022/08/07 04:31:29;;;;;;;18.13;15.60;;;;;;;21.91;76.91;99661.94;5105786;28;20038;-31
2022/08/07 04:33:55;;;;;;;20.25;15.48;;;;;;;22.05;76.28;99654.56;5087877;28;20116;-29
2022/08/07 04:36:20;;;;;;;18.08;15.38;;;;;;;21.87;77.09;99650.09;5087487;28;20055;-31
2022/08/07 04:38:46;;;;;;;20.17;16.20;;;;;;;22.18;76.41;99668.44;5087639;28;20063;-29
2022/08/07 04:41:11;;;;;;;17.90;16.10;;;;;;;22.30;76.02;99668.72;5106099;28;20027;-32
2022/08/07 04:43:38;;;;;;;24.00;17.70;;;;;;;22.53;74.68;99668.75;5105768;28;20059;-28
2022/08/07 04:46:43;;;;;;;22.63;16.80;;;;;;;22.71;74.06;99673.19;5073342;28;21204;-28
2022/08/07 04:49:40;;;;;;;22.63;16.42;;;;;;;22.81;73.82;99672.94;5064012;28;20294;-31
2022/08/07 04:52:05;;;;;;;;;;;;;;;22.92;74.22;99678.13;5064295;28;20040;-28
2022/08/07 04:54:38;;;;;;;23.70;18.23;;;;;;;23.07;72.68;99677.78;5065300;28;19908;-28
2022/08/07 04:57:10;;;;;;;20.92;16.00;;;;;;;23.14;72.08;99672.66;5063452;28;21096;-31
2022/08/07 05:00:00;;;;;;;19.05;15.40;;;;;;;23.37;71.56;99678.84;5065188;28;20636;-31
2022/08/07 05:03:09;;;;;;;14.38;12.43;;;;;;;23.54;70.72;99683.56;5065077;28;20531;-28
2022/08/07 05:05:42;;;;;;;17.08;12.18;;;;;;;23.69;70.08;99674.16;5064961;28;20029;-30
2022/08/07 05:08:20;;;;;;;14.13;11.43;;;;;;;23.85;70.42;99693.63;5064968;28;20021;-30
2022/08/07 05:11:08;;;;;;;14.40;11.70;;;;;;;24.03;68.68;99681.66;5063225;28;20048;-33
2022/08/07 05:13:38;;;;;;;13.38;10.90;;;;;;;24.10;67.80;99685.81;5064351;28;20037;-32
2022/08/07 05:16:07;;;;;;;14.43;12.05;;;;;;;24.14;68.02;99695.75;5063981;28;20038;-29
2022/08/07 05:18:46;;;;;;;19.00;11.63;;;;;;;24.35;67.94;99700.59;5063777;28;20027;-28
2022/08/07 05:21:13;;;;;;;14.07;11.43;;;;;;;24.52;67.39;99688.91;5065303;28;20037;-29
2022/08/07 05:23:43;;;;;;;15.43;11.82;;;;;;;24.51;65.85;99682.66;5063263;28;20518;-28
2022/08/07 05:26:13;;;;;;;16.60;10.90;;;;;;;24.62;65.17;99683.13;5064930;28;20040;-35
2022/08/07 05:28:41;;;;;;;13.98;11.00;;;;;;;24.71;64.84;99699.50;5063754;28;20033;-32
2022/08/07 05:31:09;;;;;;;16.05;10.50;;;;;;;24.82;64.39;99700.75;5064870;28;20064;-28
2022/08/07 05:33:36;;;;;;;18.92;13.43;;;;;;;24.78;64.49;99686.16;5063316;28;20066;-30
2022/08/07 05:36:05;;;;;;;15.52;10.57;;;;;;;25.03;63.58;99693.50;5063270;28;20496;-29
2022/08/07 05:38:32;;;;;;;17.92;12.40;;;;;;;25.26;63.06;99707.75;5063298;28;20476;-29
2022/08/07 05:41:00;;;;;;;18.25;12.63;;;;;;;25.56;62.32;99699.63;5064506;28;20032;-32
2022/08/07 05:43:25;;;;;;;;;;;;;;;25.68;61.19;99701.63;5063570;28;20051;-33
2022/08/07 05:45:51;;;;;;;14.75;11.18;;;;;;;25.64;61.46;99696.03;5082011;28;20377;-30
2022/08/07 05:48:19;;;;;;;12.90;10.05;;;;;;;25.94;61.33;99715.19;5086754;28;20122;-30
2022/08/07 05:50:45;;;;;;;;;;;;;;;26.07;59.56;99713.31;5087222;28;20058;-30
2022/08/07 05:53:10;;;;;;;11.60;9.52;;;;;;;26.00;61.01;99713.84;5086643;28;19907;-34
2022/08/07 05:55:37;;;;;;;11.60;9.65;;;;;;;25.95;59.73;99716.78;5104971;28;20024;-31
2022/08/07 05:58:04;;;;;;;12.20;9.90;;;;;;;26.16;59.03;99699.63;5087008;28;20170;-32
2022/08/07 06:00:33;;;;;;;13.77;10.40;;;;;;;26.05;59.38;99694.56;5105428;28;21291;-29
2022/08/07 06:03:01;;;;;;;14.05;9.63;;;;;;;26.16;59.39;99713.28;5086990;28;20039;-29
2022/08/07 06:05:27;;;;;;;12.00;9.38;;;;;;;26.34;58.94;99722.97;5086561;28;20452;-28
2022/08/07 06:07:54;;;;;;;10.65;8.98;;;;;;;26.41;58.88;99723.22;5104668;28;20536;-30
2022/08/07 06:10:20;;;;;;;12.27;8.98;;;;;;;26.57;58.43;99719.88;5086865;28;20067;-31
2022/08/07 06:12:47;;;;;;;10.70;8.30;;;;;;;26.64;56.94;99714.69;5086499;28;20039;-32
2022/08/07 06:15:14;;;;;;;11.93;8.85;;;;;;;26.60;57.09;99713.75;5105235;28;20024;-30
2022/08/07 06:17:41;;;;;;;16.63;12.02;;;;;;;26.64;56.30;99711.97;5086312;28;20122;-33
2022/08/07 06:20:08;;;;;;;19.58;13.88;;;;;;;26.91;56.92;99712.50;5069807;28;20483;-33
2022/08/07 06:22:35;;;;;;;11.32;8.90;;;;;;;27.14;54.96;99730.16;5104564;28;20028;-33
2022/08/07 06:25:00;;;;;;;11.63;8.88;;;;;;;27.09;55.18;99721.34;5090232;28;20088;-31
2022/08/07 06:27:26;;;;;;;21.00;9.55;;;;;;;27.01;56.51;99728.50;5108551;28;20031;-29
2022/08/07 06:29:52;;;;;;;13.23;9.32;;;;;;;27.26;55.16;99721.22;5108737;28;20080;-31
2022/08/07 06:32:17;;;;;;;11.98;9.02;;;;;;;27.36;55.16;99714.47;5090224;28;20035;-33
2022/08/07 06:34:43;;;;;;;10.43;8.40;;;;;;;27.22;55.42;99717.53;5108448;28;20475;-30
2022/08/07 06:37:08;;;;;;;10.73;8.60;;;;;;;27.35;54.00;99716.41;5108355;28;20042;-28
2022/08/07 06:39:34;;;;;;;35.55;21.92;;;;;;;27.28;54.93;99712.63;5089722;28;20032;-29
2022/08/07 06:42:18;;;;;;;18.48;11.73;;;;;;;27.65;53.93;99738.13;5108449;28;20838;-31
2022/08/07 06:44:46;;;;;;;10.13;9.02;;;;;;;27.85;53.59;99729.00;5108095;28;20032;-33
2022/08/07 06:47:12;;;;;;;17.23;11.05;;;;;;;27.86;53.32;99724.31;5066728;28;20163;-32
2022/08/07 06:49:37;;;;;;;10.73;9.23;;;;;;;27.96;52.86;99712.94;5067078;28;20103;-32
2022/08/07 06:52:06;;;;;;;9.82;8.80;;;;;;;27.98;51.86;99729.03;5067780;28;20032;-28
2022/08/07 06:54:31;;;;;;;12.15;8.65;;;;;;;27.97;52.09;99724.69;5065900;28;20059;-32
2022/08/07 06:56:58;;;;;;;14.00;8.80;;;;;;;28.14;51.72;99718.97;5067569;28;20063;-29
2022/08/07 06:59:28;;;;;;;10.55;8.95;;;;;;;28.40;50.69;99732.28;5066019;28;20040;-31
2022/08/07 07:01:56;;;;;;;11.43;8.32;;;;;;;28.41;51.12;99728.38;5067445;28;20044;-30
2022/08/07 07:04:22;;;;;;;12.23;8.63;;;;;;;28.35;50.18;99718.78;5066183;28;20051;-31
2022/08/07 07:06:48;;;;;;;11.10;8.55;;;;;;;28.47;49.17;99712.47;5067270;28;20103;-28
2022/08/07 07:09:23;;;;;;;15.32;9.88;;;;;;;28.78;48.95;99736.50;5067327;28;20028;-28
2022/08/07 07:12:16;;;;;;;17.23;11.70;;;;;;;28.91;50.58;99722.72;5065855;28;20036;-29
2022/08/07 07:15:03;;;;;;;18.77;14.20;;;;;;;29.08;48.88;99727.13;5028787;28;20895;-28
2022/08/07 07:17:45;;;;;;;10.55;9.27;;;;;;;29.25;48.39;99726.78;5065652;28;20039;-29
2022/08/07 07:20:22;;;;;;;10.02;8.27;;;;;;;29.04;47.23;99727.00;5067005;28;20499;-32
2022/08/07 07:22:49;;;;;;;10.43;7.93;;;;;;;29.10;48.31;99725.59;5066978;28;20115;-33
2022/08/07 07:25:16;;;;;;;10.75;8.63;;;;;;;29.33;48.69;99711.31;5065238;28;20052;-34
2022/08/07 07:27:51;;;;;;;9.43;8.43;;;;;;;29.71;46.04;99720.88;5065294;28;20563;-28
2022/08/07 07:30:19;;;;;;;16.75;11.45;;;;;;;29.62;45.53;99704.56;5065397;28;20147;-30
2022/08/07 07:32:45;;;;;;;10.85;8.60;;;;;;;29.87;45.84;99712.59;5066868;28;20119;-29
2022/08/07 07:35:13;;;;;;;12.23;8.25;;;;;;;30.07;46.29;99721.72;5064736;28;20033;-30
2022/08/07 07:37:41;;;;;;;9.65;8.27;;;;;;;30.03;44.62;99716.91;5064775;28;20060;-33
2022/08/07 07:40:14;;;;;;;10.77;8.70;;;;;;;30.04;44.43;99696.53;5065430;28;20066;-29
2022/08/07 07:42:40;;;;;;;10.75;8.20;;;;;;;30.37;45.69;99714.53;5066879;28;20090;-29
2022/08/07 07:45:07;;;;;;;9.45;7.72;;;;;;;30.41;42.63;99715.41;5071117;28;20056;-28
2022/08/07 07:47:38;;;;;;;10.25;8.02;;;;;;;30.29;43.98;99723.78;5107221;28;20504;-29
2022/08/07 07:50:06;;;;;;;9.43;7.88;;;;;;;30.29;44.11;99717.47;5107180;28;20128;-29
2022/08/07 07:52:33;;;;;;;10.25;7.95;;;;;;;30.53;42.58;99711.72;5088608;28;20070;-30
2022/08/07 07:55:01;;;;;;;12.20;8.90;;;;;;;30.24;42.00;99715.81;5088662;28;20531;-30
2022/08/07 07:57:28;;;;;;;11.45;8.35;;;;;;;30.16;42.57;99714.03;5087958;28;20042;-30
2022/08/07 07:59:54;;;;;;;11.32;8.48;;;;;;;30.34;42.46;99720.78;5088293;28;20070;-33
2022/08/07 08:02:22;;;;;;;9.90;7.90;;;;;;;30.47;41.35;99728.91;5087977;28;20040;-30
2022/08/07 08:04:48;;;;;;;9.02;8.02;;;;;;;30.38;42.55;99721.66;5106417;28;20426;-30
2022/08/07 08:07:14;;;;;;;10.60;8.40;;;;;;;30.33;42.00;99719.16;5088031;28;20031;-34
2022/08/07 08:09:41;;;;;;;10.88;7.53;;;;;;;30.33;41.98;99719.16;5088076;28;20031;-29
2022/08/07 08:12:07;;;;;;;11.13;7.57;;;;;;;30.35;42.36;99719.59;5088214;28;20088;-29
2022/08/07 08:14:35;;;;;;;10.20;8.00;;;;;;;30.38;41.41;99716.16;5088022;28;20032;-30
2022/08/07 08:17:01;;;;;;;10.77;7.43;;;;;;;30.71;38.64;99701.06;5087941;28;20035;-32
2022/08/07 08:19:30;;;;;;;10.33;7.80;;;;;;;31.24;39.52;99722.50;5088224;28;20096;-29
2022/08/07 08:27:32;;;;;;;11.20;7.85;;;;;;;31.32;38.23;99706.91;5106036;28;20038;-29
2022/08/07 08:30:04;;;;;;;9.40;7.32;;;;;;;31.86;39.16;99714.09;5087657;28;20032;-33
2022/08/07 08:32:32;;;;;;;11.73;8.23;;;;;;;32.40;37.86;99715.63;5087625;28;20034;-29
2022/08/07 08:35:00;;;;;;;8.82;6.78;;;;;;;32.42;38.63;99690.41;5105923;28;20487;-31
2022/08/07 08:37:28;;;;;;;7.85;5.03;;;;;;;32.85;34.81;99707.50;5087322;28;20585;-33
2022/08/07 08:39:55;;;;;;;7.32;4.88;;;;;;;32.79;32.12;99715.31;5087451;28;20482;-31
2022/08/07 08:42:38;;;;;;;6.97;5.35;;;;;;;32.86;32.68;99719.34;5087322;28;20030;-31
2022/08/07 08:45:27;;;;;;;7.13;4.50;;;;;;;32.63;32.46;99717.50;5105641;28;20088;-29
2022/08/07 08:48:36;;;;;;;7.20;4.85;;;;;;;31.91;33.50;99704.69;5105957;28;20035;-32
2022/08/07 08:51:34;;;;;;;6.45;4.40;;;;;;;32.20;32.22;99700.38;5067072;28;20480;-30
2022/08/07 08:54:02;;;;;;;9.02;4.70;;;;;;;32.77;33.27;99706.63;5087369;28;20127;-31
2022/08/07 08:56:48;;;;;;;8.27;4.97;;;;;;;33.23;33.22;99698.03;5087266;28;20032;-35
2022/08/07 08:59:25;;;;;;;9.80;5.20;;;;;;;33.22;32.15;99696.47;5087436;28;20096;-29
2022/08/07 09:02:24;;;;;;;6.13;4.75;;;;;;;33.15;31.93;99688.09;5087505;28;20024;-32
2022/08/07 09:05:27;;;;;;;6.85;4.70;;;;;;;33.72;32.01;99709.09;5105866;28;20032;-32
2022/08/07 09:08:01;;;;;;;7.32;4.85;;;;;;;33.87;31.49;99701.69;5105408;28;20415;-31
2022/08/07 09:10:43;;;;;;;7.97;4.65;;;;;;;33.86;31.25;99694.56;5087689;28;20023;-29
2022/08/07 09:13:12;;;;;;;6.53;4.78;;;;;;;33.92;30.65;99696.59;5105471;28;20032;-30
2022/08/07 09:16:04;;;;;;;9.57;5.13;;;;;;;34.39;31.68;99689.34;5087017;28;20039;-31
2022/08/07 09:18:54;;;;;;;7.18;5.10;;;;;;;34.02;31.97;99695.84;5105568;28;20023;-31
2022/08/07 09:21:52;;;;;;;8.55;4.63;;;;;;;33.52;32.85;99691.94;5105649;28;20062;-31
2022/08/07 09:24:55;;;;;;;8.68;5.15;;;;;;;33.52;31.85;99687.19;5105802;28;20032;-28
2022/08/07 09:27:46;;;;;;;7.30;4.88;;;;;;;32.93;32.73;99680.75;5105529;28;20026;-30
2022/08/07 09:30:12;;;;;;;6.50;4.78;;;;;;;33.11;32.61;99678.97;5105372;28;20028;-32
2022/08/07 09:33:15;;;;;;;9.73;4.63;;;;;;;34.17;32.22;99685.69;5087451;28;20499;-29
2022/08/07 09:35:59;;;;;;;6.15;4.43;;;;;;;34.29;30.63;99689.28;5105351;28;20047;-32
2022/08/07 09:38:54;;;;;;;6.00;4.38;;;;;;;34.44;30.01;99688.16;5086563;28;20078;-29
2022/08/07 09:41:39;;;;;;;7.82;5.50;;;;;;;34.35;30.81;99674.69;5086826;28;20115;-30
2022/08/07 09:44:51;;;;;;;6.80;5.30;;;;;;;33.76;29.39;99671.22;5086796;28;20040;-35
2022/08/07 09:47:35;;;;;;;6.45;4.22;;;;;;;33.65;30.25;99673.09;5096515;28;20113;-32
2022/08/07 09:50:19;;;;;;;8.07;4.93;;;;;;;33.25;32.26;99680.28;5087055;28;20028;-31
2022/08/07 09:53:01;;;;;;;6.70;5.05;;;;;;;32.69;31.50;99666.28;5105557;28;20120;-29
2022/08/07 09:55:51;;;;;;;6.38;4.80;;;;;;;32.30;32.45;99676.88;5087194;28;20088;-34
2022/08/07 09:58:32;;;;;;;5.93;4.35;;;;;;;32.33;33.01;99670.63;5108201;28;20080;-33
2022/08/07 10:01:28;;;;;;;6.40;4.47;;;;;;;32.62;32.31;99671.75;5109488;28;20532;-33
2022/08/07 10:04:14;;;;;;;13.85;10.40;;;;;;;32.62;33.27;99664.25;5109156;28;20039;-28
2022/08/07 10:06:51;;;;;;;6.20;4.78;;;;;;;32.71;32.01;99658.44;5090535;28;20063;-30
2022/08/07 10:09:35;;;;;;;;;;;;;;;32.58;30.80;99665.41;5109519;28;20111;-31
2022/08/07 10:12:38;;;;;;;9.40;6.45;;;;;;;32.27;31.87;99656.34;5108971;28;19922;-32
2022/08/07 10:15:15;;;;;;;7.97;5.10;;;;;;;32.34;31.96;99639.06;5108709;28;20031;-33
2022/08/07 10:18:00;;;;;;;8.75;6.88;;;;;;;32.50;32.87;99649.91;5090028;28;20063;-32
2022/08/07 10:21:10;;;;;;;8.10;6.20;;;;;;;32.48;31.45;99650.28;5108723;28;20034;-31
2022/08/07 10:23:45;;;;;;;7.50;5.18;;;;;;;32.31;33.16;99648.91;5089906;28;20027;-32
2022/08/07 10:26:16;;;;;;;7.82;6.15;;;;;;;32.17;32.94;99643.22;5090113;28;20039;-29
2022/08/07 10:29:30;;;;;;;6.47;5.25;;;;;;;32.50;32.91;99647.16;5108828;28;20028;-29
2022/08/07 10:32:23;;;;;;;9.95;4.45;;;;;;;32.50;32.43;99652.66;5060560;28;20062;-35
2022/08/07 10:34:51;;;;;;;7.10;4.32;;;;;;;33.28;31.02;99652.66;5108748;28;20019;-30
2022/08/07 10:37:56;;;;;;;6.20;4.13;;;;;;;34.35;31.10;99647.00;5090278;28;20036;-33
2022/08/07 10:40:28;;;;;;;5.07;3.88;;;;;;;35.15;28.86;99648.75;5108670;28;20110;-32
2022/08/07 10:43:48;;;;;;;5.47;4.15;;;;;;;34.70;26.76;99640.00;5089881;28;20031;-29
2022/08/07 10:46:26;;;;;;;5.88;4.03;;;;;;;34.28;28.52;99646.97;5044567;28;20056;-32
2022/08/07 10:49:20;;;;;;;5.60;4.05;;;;;;;34.91;27.22;99638.44;5100218;28;20152;-29
2022/08/07 10:51:55;;;;;;;5.00;3.60;;;;;;;35.91;26.70;99641.13;5089682;28;20036;-32
2022/08/07 10:54:45;;;;;;;6.35;4.13;;;;;;;36.00;26.40;99635.16;5108551;28;20112;-31
2022/08/07 10:57:19;;;;;;;5.38;4.18;;;;;;;35.34;26.61;99635.69;5107779;28;20072;-33
2022/08/07 11:00:15;;;;;;;5.57;3.38;;;;;;;35.83;25.69;99630.47;5107966;28;20027;-29
2022/08/07 11:02:40;;;;;;;6.15;3.55;;;;;;;35.79;25.15;99631.25;5089297;28;20031;-32
2022/08/07 11:05:43;;;;;;;5.95;3.90;;;;;;;35.49;26.80;99622.59;5107801;28;20088;-29
2022/08/07 11:08:26;;;;;;;4.78;3.72;;;;;;;35.57;25.85;99627.75;5107654;28;20652;-31
2022/08/07 11:11:06;;;;;;;6.00;4.00;;;;;;;36.07;26.63;99628.78;5089159;28;20043;-32
2022/08/07 11:13:50;;;;;;;9.35;6.43;;;;;;;35.82;25.64;99624.13;5089585;28;20027;-29
2022/08/07 11:16:34;;;;;;;7.32;4.63;;;;;;;36.17;25.13;99622.44;5089563;28;20024;-35
2022/08/07 11:19:06;;;;;;;14.10;9.23;;;;;;;36.02;25.69;99616.09;5108111;28;20495;-31
2022/08/07 11:21:58;;;;;;;6.43;4.00;;;;;;;36.52;24.46;99609.53;5107606;28;20031;-36
2022/08/07 11:24:41;;;;;;;5.15;3.92;;;;;;;36.37;24.29;99609.63;5088962;28;20028;-35
2022/08/07 11:27:44;;;;;;;5.20;3.72;;;;;;;35.91;24.68;99616.16;5107649;28;20028;-31
2022/08/07 11:30:17;;;;;;;5.50;4.20;;;;;;;35.78;25.65;99618.59;5070132;28;20039;-29
2022/08/07 11:32:50;;;;;;;6.18;4.35;;;;;;;35.25;25.20;99602.03;5107244;28;20031;-29
2022/08/07 11:35:29;;;;;;;5.60;4.07;;;;;;;34.78;26.63;99605.59;5089016;28;20071;-29
2022/08/07 11:38:12;;;;;;;5.93;4.25;;;;;;;35.04;26.40;99614.69;5088672;28;20164;-29
2022/08/07 11:40:37;;;;;;;6.50;4.47;;;;;;;34.97;26.38;99607.16;5107414;28;20042;-32
2022/08/07 11:43:12;;;;;;;5.63;4.50;;;;;;;35.00;26.76;99602.81;5106769;28;20036;-32
2022/08/07 11:45:56;;;;;;;7.68;4.38;;;;;;;34.93;26.58;99600.06;5088089;28;20055;-29
2022/08/07 11:48:21;;;;;;;8.15;4.45;;;;;;;34.66;27.09;99608.75;5088754;28;20038;-32
2022/08/07 11:51:16;;;;;;;7.60;4.70;;;;;;;34.51;27.17;99598.78;5107336;28;20027;-29
2022/08/07 11:54:00;;;;;;;6.55;4.97;;;;;;;34.14;27.01;99608.19;5088338;28;20038;-30
2022/08/07 11:56:44;;;;;;;6.72;5.07;;;;;;;34.08;27.89;99598.63;5106828;28;20406;-29